Babitonga — A8CO2 — position and weather

sailwx.info

Track history (hours):
 
Tides and Currents Weather Stations Pressure Air Temp Water Temp Dewpoint Dewpoint Depression Visibility Wind Speed Wind Dir Waves Ship Positions

Babitonga

Last reported at 2015-Mar-26 06:00 UTC. Time now 2015-Mar-29 16:05 UTC.
Position N 05°00' E 098°48'.

Length 225 m; beam 32.3 m; draft 13 m.

Type: Cargo ship. MMSI: 636090672.

Wind from 050 at 6 knots

Barometer 1015.6 mb
Air temperature 31.4 ° C
Visibility: greater than 10.8 NM
Dewpoint 23.6 ° C

Date/timePositionNaut miles runAvg speedWind from/ knotsBaromVisibWave heightAir tempDewpointWater temp
2015-Mar-26 06:00N 05°00' E 098°48'27411.1 050 / 61015.610.8 31.423.6
2015-Mar-25 05:12N 01°59' E 102°14'7 9.7
2015-Mar-25 04:27N 01°54' E 102°20'10 9.5
2015-Mar-25 03:25N 01°50' E 102°29'8 9.6
2015-Mar-25 02:33N 01°47' E 102°36'7910.9
2015-Mar-24 19:21N 01°09' E 103°46'7 8.9
2015-Mar-24 18:32N 01°12' E 103°53'6 5.9
2015-Mar-24 17:33N 01°17' E 103°56'0 0.1
2015-Mar-24 16:30N 01°17' E 103°56'0 0.0
2015-Mar-24 14:24N 01°17' E 103°56'0 0.0
2015-Mar-24 13:06N 01°17' E 103°56'0 0.0
2015-Mar-24 12:15N 01°17' E 103°56'0 0.0
2015-Mar-24 11:30N 01°17' E 103°56'0 0.0
2015-Mar-24 10:30N 01°17' E 103°56'0 0.0
2015-Mar-24 09:12N 01°17' E 103°56'0 0.0
2015-Mar-24 08:27N 01°17' E 103°56'0 0.0
2015-Mar-24 07:30N 01°17' E 103°56'3 3.0
2015-Mar-24 06:33N 01°16' E 103°59'6 5.5
2015-Mar-24 05:33N 01°16' E 104°05'8 7.5
2015-Mar-24 04:28N 01°17' E 104°13'  
2015-Mar-20 18:00N 14°12' E 112°30'40011.1 070 / 191015.7 5.4 26.022.1
2015-Mar-19 06:00N 19°36' E 116°36'17812.1 030 / 41016.410.8 0.527.920.9
2015-Mar-18 15:15N 21°55' E 118°35'1110.8
2015-Mar-18 14:15N 22°04' E 118°42'94 9.7
2015-Mar-18 04:33N 23°14' E 119°49'1510.1
2015-Mar-18 03:05N 23°28' E 119°53'6 9.5
2015-Mar-18 02:26N 23°34' E 119°55'8 8.5
2015-Mar-18 01:29N 23°42' E 119°56'10 8.1
2015-Mar-18 00:13N 23°52' E 119°60'9 8.1
2015-Mar-17 23:09N 23°60' E 120°03'36310.1
2015-Mar-16 11:15N 29°29' E 122°55'  
Track history (hours):
 
Tides and Currents Weather Stations Pressure Air Temp Water Temp Dewpoint Dewpoint Depression Visibility Wind Speed Wind Dir Waves Ship Positions

Babitonga

Last reported at 2015-Mar-26 06:00 UTC. Time now 2015-Mar-29 16:05 UTC.
Position N 05°00' E 098°48'.

Length 225 m; beam 32.3 m; draft 13 m.

Type: Cargo ship. MMSI: 636090672.

Wind from 050 at 6 knots

Barometer 1015.6 mb
Air temperature 31.4 ° C
Visibility: greater than 10.8 NM
Dewpoint 23.6 ° C

Date/timePositionNaut miles runAvg speedWind from/ knotsBaromVisibWave heightAir tempDewpointWater temp
2015-Mar-26 06:00N 05°00' E 098°48'27411.1 050 / 61015.610.8 31.423.6
2015-Mar-25 05:12N 01°59' E 102°14'7 9.7
2015-Mar-25 04:27N 01°54' E 102°20'10 9.5
2015-Mar-25 03:25N 01°50' E 102°29'8 9.6
2015-Mar-25 02:33N 01°47' E 102°36'7910.9
2015-Mar-24 19:21N 01°09' E 103°46'7 8.9
2015-Mar-24 18:32N 01°12' E 103°53'6 5.9
2015-Mar-24 17:33N 01°17' E 103°56'0 0.1
2015-Mar-24 16:30N 01°17' E 103°56'0 0.0
2015-Mar-24 14:24N 01°17' E 103°56'0 0.0
2015-Mar-24 13:06N 01°17' E 103°56'0 0.0
2015-Mar-24 12:15N 01°17' E 103°56'0 0.0
2015-Mar-24 11:30N 01°17' E 103°56'0 0.0
2015-Mar-24 10:30N 01°17' E 103°56'0 0.0
2015-Mar-24 09:12N 01°17' E 103°56'0 0.0
2015-Mar-24 08:27N 01°17' E 103°56'0 0.0
2015-Mar-24 07:30N 01°17' E 103°56'3 3.0
2015-Mar-24 06:33N 01°16' E 103°59'6 5.5
2015-Mar-24 05:33N 01°16' E 104°05'8 7.5
2015-Mar-24 04:28N 01°17' E 104°13'  
2015-Mar-20 18:00N 14°12' E 112°30'40011.1 070 / 191015.7 5.4 26.022.1
2015-Mar-19 06:00N 19°36' E 116°36'17812.1 030 / 41016.410.8 0.527.920.9
2015-Mar-18 15:15N 21°55' E 118°35'1110.8
2015-Mar-18 14:15N 22°04' E 118°42'94 9.7
2015-Mar-18 04:33N 23°14' E 119°49'1510.1
2015-Mar-18 03:05N 23°28' E 119°53'6 9.5
2015-Mar-18 02:26N 23°34' E 119°55'8 8.5
2015-Mar-18 01:29N 23°42' E 119°56'10 8.1
2015-Mar-18 00:13N 23°52' E 119°60'9 8.1
2015-Mar-17 23:09N 23°60' E 120°03'36310.1
2015-Mar-16 11:15N 29°29' E 122°55'  

Dump ship's entire track history